Time;durP1;ratioP1;P1;durP2;ratioP2;P2;SDS_P1;SDS_P2;PMS_P1;PMS_P2;Temp;Humidity;BMP_temperature;BMP_pressure;BME280_temperature;BME280_humidity;BME280_pressure;Samples;Min_cycle;Max_cycle;Signal;HPM_P1;HPM_P2
2023/03/01 00:01:33;;;;;;;18.53;12.57;;;;;;;-0.32;68.95;99951.91;5092422;28;43379;-81
2023/03/01 00:04:01;;;;;;;20.13;12.57;;;;;;;-0.43;68.69;99933.72;5075488;28;41733;-80
2023/03/01 00:06:30;;;;;;;18.83;11.80;;;;;;;-0.32;68.63;99951.91;5075675;28;41121;-81
2023/03/01 00:08:58;;;;;;;18.53;11.90;;;;;;;-0.46;68.49;99939.78;5093546;28;40950;-82
2023/03/01 00:11:27;;;;;;;18.23;12.43;;;;;;;-0.34;68.69;99953.66;5092300;28;42680;-81
2023/03/01 00:13:58;;;;;;;14.20;11.50;;;;;;;-0.36;68.85;99959.72;5075477;28;44126;-82
2023/03/01 00:16:29;;;;;;;19.50;12.80;;;;;;;-0.44;69.36;99938.06;5075454;28;41913;-81
2023/03/01 00:18:58;;;;;;;16.83;11.30;;;;;;;-0.37;68.39;99954.53;5091358;28;39993;-81
2023/03/01 00:21:27;;;;;;;18.67;13.33;;;;;;;-0.37;68.22;99964.94;5092464;28;41628;-81
2023/03/01 00:23:57;;;;;;;19.20;13.40;;;;;;;-0.44;68.63;99943.25;5074795;28;41602;-81
2023/03/01 00:26:26;;;;;;;18.13;12.03;;;;;;;-0.52;68.54;99939.81;5074987;28;42503;-80
2023/03/01 00:28:56;;;;;;;19.00;13.23;;;;;;;-0.40;68.87;99954.53;5074920;28;39401;-81
2023/03/01 00:31:25;;;;;;;17.13;12.57;;;;;;;-0.43;69.27;99944.13;5092573;28;41604;-81
2023/03/01 00:33:56;;;;;;;18.13;12.13;;;;;;;-0.43;68.75;99947.59;5092091;28;42942;-81
2023/03/01 00:36:26;;;;;;;17.13;12.50;;;;;;;-0.43;69.06;99939.78;5075703;28;41028;-81
2023/03/01 00:38:54;;;;;;;20.57;13.23;;;;;;;-0.61;69.43;99903.38;5075919;28;42016;-81
2023/03/01 00:41:26;;;;;;;18.47;12.90;;;;;;;-0.46;68.88;99931.97;5092883;28;41698;-81
2023/03/01 00:43:54;;;;;;;15.30;11.77;;;;;;;-0.49;68.79;99924.19;5075208;28;43143;-81
2023/03/01 00:46:24;;;;;;;16.17;11.90;;;;;;;-0.51;69.34;99920.72;5092359;28;42265;-81
2023/03/01 00:48:52;;;;;;;18.10;12.27;;;;;;;-0.64;69.07;99898.19;5092463;28;39442;-81
2023/03/01 00:51:22;;;;;;;18.47;12.50;;;;;;;-0.54;69.00;99920.72;5075499;28;41903;-81
2023/03/01 00:53:52;;;;;;;16.07;11.17;;;;;;;-0.54;68.26;99920.72;5075019;28;42059;-81
2023/03/01 00:56:20;;;;;;;16.07;12.20;;;;;;;-0.56;68.51;99921.59;5091433;28;43144;-81
2023/03/01 00:58:50;;;;;;;17.87;12.60;;;;;;;-0.59;68.73;99912.03;5093164;28;39921;-81
2023/03/01 01:01:20;;;;;;;19.70;12.97;;;;;;;-0.60;68.67;99918.13;5075483;28;40913;-81
2023/03/01 01:03:50;;;;;;;19.57;12.40;;;;;;;-0.62;69.09;99917.28;5074594;28;43235;-81
2023/03/01 01:06:19;;;;;;;18.80;12.40;;;;;;;-0.66;68.66;99909.47;5093091;28;42149;-81
2023/03/01 01:08:48;;;;;;;18.07;12.30;;;;;;;-0.77;68.54;99896.47;5092075;28;41049;-80
2023/03/01 01:11:16;;;;;;;16.93;11.83;;;;;;;-0.69;68.84;99907.72;5074828;28;40300;-81
2023/03/01 01:13:45;;;;;;;17.70;12.33;;;;;;;-0.74;68.72;99905.13;5074598;28;41529;-81
2023/03/01 01:16:15;;;;;;;17.00;11.73;;;;;;;-0.73;69.24;99898.19;5074710;28;41019;-81
2023/03/01 01:18:43;;;;;;;17.87;12.33;;;;;;;-0.84;68.99;99884.31;5074585;28;41254;-80
2023/03/01 01:21:14;;;;;;;17.53;11.40;;;;;;;-0.80;68.56;99897.31;5091976;28;40741;-81
2023/03/01 01:23:43;;;;;;;19.40;12.60;;;;;;;-0.78;68.45;99910.34;5091544;28;41647;-81
2023/03/01 01:26:13;;;;;;;17.53;11.57;;;;;;;-0.81;68.07;99905.13;5091772;28;43156;-81
2023/03/01 01:28:42;;;;;;;20.00;11.10;;;;;;;-0.86;67.88;99891.25;5091983;28;39508;-81
2023/03/01 01:31:10;;;;;;;17.37;12.83;;;;;;;-0.98;68.18;99876.50;5095189;28;41954;-81
2023/03/01 01:33:39;;;;;;;18.13;12.13;;;;;;;-0.88;68.21;99896.47;5096154;28;43077;-82
2023/03/01 01:36:08;;;;;;;17.27;11.27;;;;;;;-0.90;68.60;99895.59;5095208;28;42243;-81
2023/03/01 01:38:37;;;;;;;14.87;11.00;;;;;;;-1.00;68.38;99872.19;5096093;28;40202;-81
2023/03/01 01:41:05;;;;;;;19.03;12.43;;;;;;;-1.05;68.01;99856.59;5078426;28;40870;-81
2023/03/01 01:43:36;;;;;;;17.87;11.23;;;;;;;-0.94;68.11;99882.59;5094940;28;42824;-81
2023/03/01 01:46:06;;;;;;;18.87;13.13;;;;;;;-0.94;69.20;99882.59;5095064;28;41081;-81
2023/03/01 01:48:41;;;;;;;19.10;12.43;;;;;;;-0.95;68.69;99883.44;5077712;28;39073;-81
2023/03/01 01:51:14;;;;;;;17.73;12.43;;;;;;;-1.10;69.03;99851.38;5078424;28;41821;-81
2023/03/01 01:53:46;;;;;;;21.13;13.47;;;;;;;-0.97;70.16;99869.59;5094854;28;43529;-81
2023/03/01 01:56:17;;;;;;;22.07;13.10;;;;;;;-1.02;71.68;99855.72;5093357;28;42194;-81
2023/03/01 01:58:47;;;;;;;19.63;12.43;;;;;;;-1.13;71.33;99835.81;5094660;28;39957;-81
2023/03/01 02:01:15;;;;;;;21.47;12.97;;;;;;;-1.12;71.19;99834.09;5094866;28;41592;-80
2023/03/01 02:03:46;;;;;;;19.87;12.70;;;;;;;-1.00;71.58;99848.81;5077887;28;42374;-81
2023/03/01 02:06:20;;;;;;;20.03;13.70;;;;;;;-1.00;71.38;99846.22;5091832;28;42120;-81
2023/03/01 02:08:51;;;;;;;20.60;12.50;;;;;;;-1.18;71.63;99816.75;5094348;28;39845;-80
2023/03/01 02:11:20;;;;;;;21.57;14.07;;;;;;;-1.03;71.95;99836.66;5077272;28;40680;-81
2023/03/01 02:13:50;;;;;;;19.73;13.37;;;;;;;-1.01;71.92;99839.28;5093990;28;42850;-81
2023/03/01 02:16:18;;;;;;;20.03;13.40;;;;;;;-1.14;71.46;99822.81;5077656;28;42850;-81
2023/03/01 02:18:48;;;;;;;21.33;13.87;;;;;;;-1.01;71.45;99849.66;5094561;28;40193;-81
2023/03/01 02:21:31;;;;;;;24.63;13.07;;;;;;;-0.99;71.29;99842.75;5077457;28;40330;-82
2023/03/01 02:24:04;;;;;;;20.03;13.40;;;;;;;-1.05;70.97;99837.53;5093913;28;42791;-82
2023/03/01 02:26:40;;;;;;;17.90;12.63;;;;;;;-1.01;71.20;99849.66;5094447;28;41106;-81
2023/03/01 02:29:10;;;;;;;19.33;12.93;;;;;;;-1.01;71.45;99844.47;5094578;28;39990;-81
2023/03/01 02:31:43;;;;;;;20.37;13.37;;;;;;;-1.02;71.23;99837.53;5094292;28;41702;-81
2023/03/01 02:34:15;;;;;;;21.30;13.73;;;;;;;-1.22;71.71;99809.78;5077382;28;41553;-81
2023/03/01 02:36:48;;;;;;;22.33;13.40;;;;;;;-1.03;71.64;99825.41;5076966;28;41203;-80
2023/03/01 02:39:19;;;;;;;23.73;14.13;;;;;;;-1.04;71.35;99823.66;5077188;28;38955;-81
2023/03/01 02:41:52;;;;;;;20.20;13.47;;;;;;;-1.06;72.04;99821.06;5075656;28;40565;-81
2023/03/01 02:44:22;;;;;;;22.17;13.80;;;;;;;-1.15;72.25;99801.16;5093994;28;42901;-81
2023/03/01 02:46:51;;;;;;;21.30;13.77;;;;;;;-1.05;71.76;99817.59;5076696;28;41694;-81
2023/03/01 02:49:22;;;;;;;21.23;13.67;;;;;;;-1.08;71.64;99813.25;5077148;28;39198;-80
2023/03/01 02:52:18;;;;;;;22.27;13.73;;;;;;;-1.05;71.87;99812.41;5091793;28;41513;-81
2023/03/01 02:54:51;;;;;;;19.57;12.87;;;;;;;-1.08;72.70;99802.88;5076754;28;42892;-81
2023/03/01 02:57:19;;;;;;;21.03;13.33;;;;;;;-1.08;72.07;99805.47;5076578;28;41967;-81
2023/03/01 02:59:51;;;;;;;20.47;13.47;;;;;;;-1.11;71.98;99797.66;5094039;28;39893;-81
2023/03/01 03:02:35;;;;;;;21.83;13.17;;;;;;;-1.11;71.55;99792.47;5094003;28;40814;-81
2023/03/01 03:05:09;;;;;;;23.00;13.47;;;;;;;-1.08;72.14;99797.66;5076852;28;41418;-81
2023/03/01 03:07:38;;;;;;;20.37;12.93;;;;;;;-1.09;71.98;99801.13;5091689;28;42364;-81
2023/03/01 03:10:15;;;;;;;19.50;12.90;;;;;;;-1.09;71.73;99784.66;5076598;28;39335;-81
2023/03/01 03:12:43;;;;;;;21.20;13.53;;;;;;;-1.16;71.47;99775.16;5091508;28;41418;-81
2023/03/01 03:15:12;;;;;;;19.53;13.57;;;;;;;-1.11;71.56;99787.25;5076638;28;41545;-81
2023/03/01 03:17:42;;;;;;;20.13;12.37;;;;;;;-1.11;71.38;99786.41;5075646;28;42518;-81
2023/03/01 03:20:16;;;;;;;20.73;13.67;;;;;;;-1.13;71.55;99789.03;5076564;28;39765;-81
2023/03/01 03:22:47;;;;;;;20.37;13.20;;;;;;;-1.15;71.75;99785.56;5076346;28;42347;-81
2023/03/01 03:25:16;;;;;;;24.13;13.97;;;;;;;-1.18;72.09;99775.16;5076627;28;41751;-81
2023/03/01 03:27:46;;;;;;;19.93;12.27;;;;;;;-1.14;71.82;99789.91;5093046;28;41208;-81
2023/03/01 03:30:18;;;;;;;20.30;13.03;;;;;;;-1.16;72.34;99789.03;5093491;28;40208;-81
2023/03/01 03:32:52;;;;;;;20.83;13.80;;;;;;;-1.23;72.30;99770.81;5092621;28;40337;-81
2023/03/01 03:35:20;;;;;;;20.90;13.37;;;;;;;-1.16;72.69;99782.97;5093436;28;42883;-81
2023/03/01 03:38:05;;;;;;;18.97;12.57;;;;;;;-1.17;72.06;99781.22;5092680;28;41504;-81
2023/03/01 03:40:35;;;;;;;18.73;12.10;;;;;;;-1.19;72.36;99789.00;5076111;28;39142;-81
2023/03/01 03:43:04;;;;;;;21.73;13.17;;;;;;;-1.19;72.30;99783.81;5075610;28;41814;-81
2023/03/01 03:45:34;;;;;;;19.97;12.67;;;;;;;-1.25;72.20;99776.03;5093272;28;42963;-82
2023/03/01 03:48:04;;;;;;;21.43;13.53;;;;;;;-1.19;71.92;99781.22;5075561;28;42078;-80
2023/03/01 03:50:32;;;;;;;21.10;13.17;;;;;;;-1.20;71.84;99782.09;5076037;28;39532;-81
2023/03/01 03:53:02;;;;;;;23.27;13.17;;;;;;;-1.22;71.90;99776.00;5092521;28;41410;-81
2023/03/01 03:55:30;;;;;;;20.63;13.37;;;;;;;-1.21;71.86;99785.53;5058973;28;41872;-80
2023/03/01 03:58:01;;;;;;;19.17;12.17;;;;;;;-1.44;71.48;99740.53;5092336;28;42706;-80
2023/03/01 04:00:30;;;;;;;19.97;12.70;;;;;;;-1.36;71.69;99756.97;5091056;28;40822;-81
2023/03/01 04:02:59;;;;;;;20.27;12.40;;;;;;;-1.34;71.61;99757.84;5092656;28;40768;-81
2023/03/01 04:05:27;;;;;;;21.07;12.37;;;;;;;-1.61;71.89;99716.31;5075601;28;43001;-81
2023/03/01 04:08:02;;;;;;;19.60;12.03;;;;;;;-1.24;71.75;99774.31;5093101;28;43225;-81
2023/03/01 04:10:31;;;;;;;21.87;13.73;;;;;;;-1.24;72.14;99782.97;5092705;28;40127;-81
2023/03/01 04:12:59;;;;;;;20.50;13.67;;;;;;;-1.32;72.03;99760.44;5092225;28;40436;-81
2023/03/01 04:15:28;;;;;;;20.60;13.00;;;;;;;-1.23;72.52;99778.59;5075796;28;43126;-81
2023/03/01 04:17:57;;;;;;;18.73;12.10;;;;;;;-1.30;72.95;99769.09;5092506;28;42476;-81
2023/03/01 04:20:28;;;;;;;22.83;14.07;;;;;;;-1.21;73.29;99777.75;5075654;28;40273;-81
2023/03/01 04:22:59;;;;;;;21.47;13.23;;;;;;;-1.17;72.41;99779.50;5092410;28;41619;-82
2023/03/01 04:25:27;;;;;;;17.93;12.30;;;;;;;-1.15;72.08;99777.75;5089350;28;42994;-81
2023/03/01 04:27:55;;;;;;;18.23;12.60;;;;;;;-1.15;71.97;99790.75;5075013;28;40795;-81
2023/03/01 04:30:25;;;;;;;21.30;13.63;;;;;;;-1.26;72.22;99771.72;5093538;28;40057;-81
2023/03/01 04:32:53;;;;;;;19.77;13.13;;;;;;;-1.15;72.26;99789.88;5091688;28;42645;-81
2023/03/01 04:35:20;;;;;;;20.37;12.57;;;;;;;-1.14;73.13;99784.69;5093485;28;42933;-81
2023/03/01 04:37:50;;;;;;;20.90;13.27;;;;;;;-1.14;73.56;99782.09;5074842;28;41139;-80
2023/03/01 04:40:18;;;;;;;21.80;13.77;;;;;;;-1.24;73.35;99772.56;5092243;28;39153;-81
2023/03/01 04:42:47;;;;;;;19.73;13.30;;;;;;;-1.17;73.51;99782.09;5092942;28;42719;-81
2023/03/01 04:45:14;;;;;;;23.67;13.40;;;;;;;-1.28;74.22;99765.63;5091987;28;43836;-81
2023/03/01 04:47:44;;;;;;;20.83;13.57;;;;;;;-1.14;73.56;99787.28;5074910;28;42552;-81
2023/03/01 04:50:15;;;;;;;20.23;13.37;;;;;;;-1.14;73.49;99782.09;5075146;28;38870;-80
2023/03/01 04:52:43;;;;;;;19.23;13.47;;;;;;;-1.10;73.29;99785.53;5074765;28;42420;-81
2023/03/01 04:55:12;;;;;;;22.63;14.47;;;;;;;-1.08;72.89;99779.47;5074679;28;41826;-81
2023/03/01 04:57:40;;;;;;;20.27;13.13;;;;;;;-1.22;73.03;99768.22;5089435;28;43175;-81
2023/03/01 05:00:20;;;;;;;23.33;13.70;;;;;;;-1.08;73.04;99783.81;5075089;28;41498;-81
2023/03/01 05:02:52;;;;;;;20.90;14.60;;;;;;;-1.05;72.91;99785.53;5091579;28;40760;-81
2023/03/01 05:05:26;;;;;;;22.50;14.10;;;;;;;-1.04;72.68;99779.47;5074648;28;41564;-81
2023/03/01 05:07:56;;;;;;;20.53;13.20;;;;;;;-1.05;72.64;99772.53;5074403;28;44008;-81
2023/03/01 05:10:26;;;;;;;21.57;13.67;;;;;;;-1.06;73.20;99783.81;5091796;28;40018;-81
2023/03/01 05:12:53;;;;;;;18.93;12.87;;;;;;;-1.08;72.69;99778.59;5074201;28;43347;-81
2023/03/01 05:15:25;;;;;;;18.70;13.07;;;;;;;-1.15;72.66;99767.38;5074921;28;41619;-81
2023/03/01 05:17:54;;;;;;;17.53;12.50;;;;;;;-1.03;72.53;99778.63;5089901;28;42092;-81
2023/03/01 05:20:23;;;;;;;21.73;13.80;;;;;;;-1.04;72.64;99782.06;5092010;28;39079;-81
2023/03/01 05:22:51;;;;;;;21.67;13.43;;;;;;;-1.15;72.58;99762.16;5073999;28;42238;-82
2023/03/01 05:25:21;;;;;;;19.87;13.07;;;;;;;-1.03;72.19;99784.69;5091609;28;42813;-83
2023/03/01 05:27:50;;;;;;;20.63;13.57;;;;;;;-1.04;72.25;99782.06;5074308;28;42358;-81
2023/03/01 05:30:19;;;;;;;21.03;12.23;;;;;;;-1.06;72.38;99779.47;5091567;28;40814;-83
2023/03/01 05:32:49;;;;;;;21.87;14.40;;;;;;;-1.08;72.42;99776.88;5092387;28;42428;-82
2023/03/01 05:35:18;;;;;;;22.90;13.33;;;;;;;-1.06;72.36;99770.81;5091652;28;42009;-82
2023/03/01 05:37:49;;;;;;;20.73;13.50;;;;;;;-1.08;72.14;99774.28;5091410;28;41305;-83
2023/03/01 05:40:19;;;;;;;19.57;12.67;;;;;;;-1.13;71.75;99768.25;5091090;28;38918;-82
2023/03/01 05:42:49;;;;;;;18.13;12.43;;;;;;;-1.08;71.90;99771.69;5074560;28;41788;-83
2023/03/01 05:45:19;;;;;;;23.70;13.57;;;;;;;-1.22;72.10;99747.44;5091482;28;42791;-82
2023/03/01 05:47:49;;;;;;;20.33;13.17;;;;;;;-1.15;72.10;99763.91;5091163;28;41121;-82
2023/03/01 05:50:19;;;;;;;23.23;13.77;;;;;;;-1.27;72.38;99738.78;5091483;28;40857;-82
2023/03/01 05:52:49;;;;;;;21.40;13.27;;;;;;;-1.13;72.08;99769.97;5074066;28;41803;-82
2023/03/01 05:55:18;;;;;;;22.60;14.97;;;;;;;-1.17;72.64;99766.50;5091559;28;42720;-82
2023/03/01 05:57:47;;;;;;;24.50;14.47;;;;;;;-1.23;72.77;99750.91;5091956;28;42248;-81
2023/03/01 06:00:21;;;;;;;20.60;13.63;;;;;;;-1.12;72.55;99771.69;5074447;28;40088;-81
2023/03/01 06:02:50;;;;;;;20.70;13.63;;;;;;;-1.13;72.53;99763.03;5074044;28;41707;-81
2023/03/01 06:05:18;;;;;;;20.17;13.87;;;;;;;-1.18;72.23;99745.69;5074165;28;42076;-81
2023/03/01 06:07:45;;;;;;;20.23;13.57;;;;;;;-1.10;72.11;99767.34;5091221;28;42570;-81
2023/03/01 06:10:14;;;;;;;20.33;13.63;;;;;;;-1.10;72.20;99759.53;5074072;28;39130;-80
2023/03/01 06:12:44;;;;;;;19.73;13.17;;;;;;;-1.19;72.26;99744.84;5102280;28;40686;-81
2023/03/01 06:15:18;;;;;;;21.97;14.93;;;;;;;-1.05;71.83;99768.22;5096699;28;41807;-80
2023/03/01 06:17:47;;;;;;;24.67;14.40;;;;;;;-1.03;71.58;99763.00;5098708;28;42534;-81
2023/03/01 06:20:17;;;;;;;20.37;13.87;;;;;;;-1.01;71.44;99766.50;5099405;28;38775;-80
2023/03/01 06:22:46;;;;;;;20.60;13.47;;;;;;;-1.02;71.36;99764.75;5116467;28;41953;-80
2023/03/01 06:25:15;;;;;;;22.50;14.07;;;;;;;-0.96;71.39;99769.94;5078892;28;41906;-82
2023/03/01 06:27:43;;;;;;;19.93;14.07;;;;;;;-1.09;71.56;99746.53;5077150;28;41364;-80
2023/03/01 06:30:15;;;;;;;24.47;15.07;;;;;;;-0.91;71.52;99768.19;5094627;28;39032;-81
2023/03/01 06:32:44;;;;;;;21.43;13.93;;;;;;;-1.00;71.55;99750.03;5093282;28;41669;-80
2023/03/01 06:35:13;;;;;;;21.30;14.03;;;;;;;-0.95;71.46;99750.88;5093687;28;43323;-80
2023/03/01 06:37:42;;;;;;;21.33;13.83;;;;;;;-0.78;71.42;99769.91;5093467;28;42743;-80
2023/03/01 06:40:13;;;;;;;23.73;14.87;;;;;;;-0.90;71.32;99739.59;5076990;28;40493;-80
2023/03/01 06:42:43;;;;;;;22.37;14.23;;;;;;;-0.71;70.85;99771.59;5076900;28;40794;-80
2023/03/01 06:45:12;;;;;;;20.00;13.63;;;;;;;-0.65;70.42;99769.00;5093976;28;43435;-81
2023/03/01 06:47:40;;;;;;;23.77;14.47;;;;;;;-0.56;70.37;99771.56;5094503;28;43176;-81
2023/03/01 06:50:11;;;;;;;22.70;14.97;;;;;;;-0.61;70.09;99757.69;5076965;28;39203;-81
2023/03/01 06:52:39;;;;;;;22.83;14.30;;;;;;;-0.53;70.16;99757.69;5093459;28;40815;-82
2023/03/01 06:55:09;;;;;;;18.80;12.87;;;;;;;-0.39;69.72;99776.72;5075754;28;43301;-81
2023/03/01 06:57:37;;;;;;;20.40;13.33;;;;;;;-0.33;69.62;99768.88;5093654;28;41930;-81
2023/03/01 07:00:05;;;;;;;23.83;15.53;;;;;;;-0.38;69.32;99755.91;5093775;28;40147;-82
2023/03/01 07:02:34;;;;;;;18.87;14.27;;;;;;;-0.21;69.40;99775.75;5093901;28;41719;-81
2023/03/01 07:05:02;;;;;;;21.70;13.63;;;;;;;-0.11;68.96;99774.84;5093171;28;42301;-81
2023/03/01 07:07:31;;;;;;;20.77;13.43;;;;;;;-0.09;68.74;99757.47;5093356;28;42290;-81
2023/03/01 07:09:59;;;;;;;18.90;12.87;;;;;;;0.11;68.39;99773.00;5076151;28;38921;-81
2023/03/01 07:12:26;;;;;;;20.83;14.30;;;;;;;0.48;67.51;99752.78;5093327;28;41962;-83
2023/03/01 07:14:55;;;;;;;20.70;13.83;;;;;;;1.41;65.76;99784.94;5077109;28;41910;-81
2023/03/01 07:17:22;;;;;;;18.97;13.70;;;;;;;2.51;62.28;99792.22;5094837;28;42146;-82
2023/03/01 07:19:50;;;;;;;19.47;14.20;;;;;;;3.45;58.30;99812.47;5093664;28;39036;-83
2023/03/01 07:22:18;;;;;;;21.60;13.13;;;;;;;4.35;56.17;99814.09;5076792;28;40906;-82
2023/03/01 07:24:47;;;;;;;20.00;13.60;;;;;;;6.46;51.71;99828.72;5076658;28;42333;-81
2023/03/01 07:27:15;;;;;;;16.20;12.60;;;;;;;8.57;46.58;99831.94;5093953;28;42343;-81
2023/03/01 07:29:43;;;;;;;16.87;12.87;;;;;;;8.97;45.59;99840.94;5093625;28;41986;-81
2023/03/01 07:32:12;;;;;;;16.90;13.20;;;;;;;7.71;45.99;99824.59;5094367;28;41773;-81
2023/03/01 07:34:40;;;;;;;16.67;12.63;;;;;;;6.89;47.29;99827.41;5076349;28;41769;-82
2023/03/01 07:37:07;;;;;;;17.87;13.53;;;;;;;6.20;48.14;99823.38;5093457;28;41391;-82
2023/03/01 07:39:35;;;;;;;17.97;13.27;;;;;;;5.54;49.32;99806.81;5076812;28;39225;-82
2023/03/01 07:42:04;;;;;;;20.87;13.77;;;;;;;5.26;50.47;99811.91;5094843;28;41611;-81
2023/03/01 07:44:31;;;;;;;18.20;13.23;;;;;;;4.45;51.01;99730.84;5093740;28;42695;-82
2023/03/01 07:46:59;;;;;;;17.73;13.10;;;;;;;4.63;51.75;99788.97;5094418;28;42991;-81
2023/03/01 07:49:27;;;;;;;21.20;14.37;;;;;;;4.60;52.04;99804.78;5094640;28;39934;-80
2023/03/01 07:51:55;;;;;;;19.73;14.23;;;;;;;5.23;51.25;99801.47;5092187;28;42147;-82
2023/03/01 07:54:23;;;;;;;18.20;13.70;;;;;;;5.01;50.76;99810.81;5094055;28;43496;-80
2023/03/01 07:56:51;;;;;;;18.27;13.90;;;;;;;4.67;51.52;99809.00;5075161;28;41253;-81
2023/03/01 07:59:21;;;;;;;21.10;14.07;;;;;;;4.35;52.42;99798.34;5093183;28;40066;-81
2023/03/01 08:01:48;;;;;;;20.07;13.50;;;;;;;4.19;52.53;99786.50;5076142;28;42196;-81
2023/03/01 08:04:16;;;;;;;21.47;13.43;;;;;;;4.07;53.33;99798.13;5075794;28;43482;-81
2023/03/01 08:06:44;;;;;;;21.83;13.70;;;;;;;4.31;53.36;99789.72;5094505;28;43157;-81
2023/03/01 08:09:12;;;;;;;21.13;13.93;;;;;;;4.67;51.99;99793.25;5075889;28;40012;-81
2023/03/01 08:11:39;;;;;;;19.63;13.90;;;;;;;5.27;50.88;99797.88;5075713;28;40888;-81
2023/03/01 08:14:07;;;;;;;20.17;14.03;;;;;;;5.57;50.22;99800.56;5092388;28;42953;-82
2023/03/01 08:16:37;;;;;;;19.90;14.03;;;;;;;5.35;49.47;99801.16;5092067;28;42270;-82
2023/03/01 08:19:06;;;;;;;17.73;13.90;;;;;;;7.12;47.84;99812.56;5093360;28;40973;-81
2023/03/01 08:21:35;;;;;;;18.10;14.57;;;;;;;9.57;42.92;99842.81;5092403;28;41901;-82
2023/03/01 08:24:03;;;;;;;16.70;13.73;;;;;;;11.24;39.05;99862.53;5092237;28;41991;-82
2023/03/01 08:26:32;;;;;;;19.53;14.17;;;;;;;13.19;36.86;99867.19;5092565;28;42506;-81
2023/03/01 08:29:01;;;;;;;15.53;13.87;;;;;;;15.05;33.47;99883.34;5092326;28;39160;-82
2023/03/01 08:31:32;;;;;;;14.77;13.27;;;;;;;16.13;31.06;99892.13;5058793;28;40755;-81
2023/03/01 08:34:05;;;;;;;16.47;14.17;;;;;;;16.80;29.10;99898.16;5091950;28;43337;-82
2023/03/01 08:36:35;;;;;;;13.73;12.23;;;;;;;17.72;30.05;99888.72;5091850;28;41214;-80
2023/03/01 08:39:03;;;;;;;16.77;13.83;;;;;;;17.87;28.77;99896.47;5074159;28;40375;-81
2023/03/01 08:41:31;;;;;;;15.43;13.93;;;;;;;17.64;27.93;99901.84;5092716;28;41681;-81
2023/03/01 08:43:59;;;;;;;16.03;13.90;;;;;;;16.84;28.84;99856.81;5074643;28;41925;-80
2023/03/01 08:46:28;;;;;;;18.20;13.90;;;;;;;18.41;26.97;99887.81;5091969;28;42322;-82
2023/03/01 08:48:56;;;;;;;14.77;13.27;;;;;;;20.05;25.41;99879.66;5091693;28;41197;-81
2023/03/01 08:51:26;;;;;;;15.10;13.50;;;;;;;21.47;23.81;99896.78;5091569;28;40626;-81
2023/03/01 08:53:55;;;;;;;14.63;13.17;;;;;;;22.17;22.59;99874.06;5092463;28;43499;-83
2023/03/01 08:56:23;;;;;;;16.83;15.17;;;;;;;22.30;21.53;99898.06;5090890;28;42341;-83
2023/03/01 08:58:50;;;;;;;15.30;13.80;;;;;;;23.12;21.11;99882.03;5092485;28;41052;-81
2023/03/01 09:01:20;;;;;;;16.30;14.70;;;;;;;23.43;20.76;99874.41;5092460;28;20230;-82
2023/03/01 09:03:48;;;;;;;14.10;12.70;;;;;;;24.20;20.90;99865.66;5091186;28;42997;-81
2023/03/01 09:06:17;;;;;;;14.93;13.53;;;;;;;25.06;19.35;99871.97;5074000;28;42343;-82
2023/03/01 09:08:48;;;;;;;15.47;13.97;;;;;;;25.74;18.98;99866.38;5091345;28;41144;-82
2023/03/01 09:11:19;;;;;;;15.53;14.10;;;;;;;26.40;18.77;99865.38;5089248;28;42341;-82
2023/03/01 09:13:48;;;;;;;14.97;13.57;;;;;;;26.93;17.76;99858.44;5074351;28;41908;-82
2023/03/01 09:16:18;;;;;;;15.20;13.63;;;;;;;27.07;16.67;99849.56;5074470;28;42053;-82
2023/03/01 09:18:50;;;;;;;14.70;13.33;;;;;;;27.22;16.90;99847.75;5091151;28;40408;-82
2023/03/01 09:21:20;;;;;;;14.73;13.43;;;;;;;27.47;16.82;99843.84;5074560;28;41978;-82
2023/03/01 09:23:50;;;;;;;16.60;15.00;;;;;;;28.01;16.28;99848.41;5091136;28;43282;-82
2023/03/01 09:26:21;;;;;;;15.40;14.10;;;;;;;28.34;15.70;99848.97;5091145;28;41146;-81
2023/03/01 09:28:51;;;;;;;14.37;13.10;;;;;;;28.74;15.38;99845.81;5091036;28;40291;-82
2023/03/01 09:31:21;;;;;;;16.57;14.97;;;;;;;28.11;15.66;99822.63;5074916;28;40678;-82
2023/03/01 09:33:52;;;;;;;16.43;14.93;;;;;;;27.59;16.20;99832.59;5074130;28;41418;-82
2023/03/01 09:36:22;;;;;;;14.87;13.47;;;;;;;26.59;16.51;99828.78;5091375;28;42248;-82
2023/03/01 09:38:53;;;;;;;15.80;14.30;;;;;;;26.67;16.87;99832.34;5091342;28;40266;-83
2023/03/01 09:41:35;;;;;;;15.67;14.17;;;;;;;26.61;17.35;99819.44;5073776;28;42052;-82
2023/03/01 09:44:12;;;;;;;15.87;14.07;;;;;;;26.50;16.70;99819.84;5091043;28;43094;-82
2023/03/01 09:46:44;;;;;;;16.10;14.60;;;;;;;24.93;17.87;99806.53;5074095;28;42413;-81
2023/03/01 09:49:17;;;;;;;14.93;13.63;;;;;;;22.89;20.01;99784.28;5074059;28;39712;-80
2023/03/01 09:51:55;;;;;;;16.00;14.33;;;;;;;21.01;21.57;99785.09;5076833;28;41863;-80
2023/03/01 09:54:24;;;;;;;16.13;14.60;;;;;;;18.61;23.31;99711.88;5094756;28;42599;-80
2023/03/01 09:57:05;;;;;;;15.63;14.07;;;;;;;17.89;24.78;99762.34;5076111;28;41136;-80
2023/03/01 09:59:46;;;;;;;16.17;14.57;;;;;;;17.89;25.31;99751.63;5077496;28;39957;-81
2023/03/01 10:02:26;;;;;;;15.73;14.13;;;;;;;19.90;23.04;99764.53;5077122;28;41226;-81
2023/03/01 10:04:59;;;;;;;14.47;13.07;;;;;;;22.11;21.10;99739.78;5077218;28;41694;-82
2023/03/01 10:07:38;;;;;;;15.63;14.23;;;;;;;24.40;18.95;99776.97;5076524;28;43874;-81
2023/03/01 10:10:09;;;;;;;15.87;14.23;;;;;;;25.83;18.01;99767.69;5091140;28;40149;-82
2023/03/01 10:12:42;;;;;;;16.27;14.60;;;;;;;26.72;17.39;99786.44;5077055;28;40509;-82
2023/03/01 10:15:15;;;;;;;15.43;13.83;;;;;;;26.68;16.75;99785.13;5092248;28;42805;-82
2023/03/01 10:17:48;;;;;;;16.73;15.23;;;;;;;26.39;16.90;99747.72;5077270;28;41309;-81
2023/03/01 10:20:19;;;;;;;15.27;13.57;;;;;;;26.65;17.03;99790.06;5091180;28;39979;-81
2023/03/01 10:22:50;;;;;;;16.47;14.87;;;;;;;27.59;15.95;99789.03;5093620;28;42222;-81
2023/03/01 10:25:32;;;;;;;15.70;14.20;;;;;;;28.45;15.67;99791.28;5093738;28;42379;-82
2023/03/01 10:28:07;;;;;;;14.90;13.30;;;;;;;29.21;15.88;99781.81;5077043;28;40774;-81
2023/03/01 10:30:41;;;;;;;15.57;14.27;;;;;;;29.76;15.23;99783.00;5077017;28;38983;-81
2023/03/01 10:33:18;;;;;;;15.63;14.32;;;;;;;29.80;14.34;99793.31;5076539;28;40462;-82
2023/03/01 10:35:47;;;;;;;15.05;13.55;;;;;;;30.07;14.55;99796.31;5091705;28;43010;-82
2023/03/01 10:38:16;;;;;;;15.00;13.60;;;;;;;29.77;15.06;99785.56;5076719;28;42254;-81
2023/03/01 10:40:58;;;;;;;14.93;13.53;;;;;;;29.21;15.42;99779.91;5076862;28;40973;-82
2023/03/01 10:43:28;;;;;;;14.47;13.17;;;;;;;28.88;15.43;99776.81;5094517;28;42842;-80
2023/03/01 10:45:55;;;;;;;15.43;14.03;;;;;;;28.65;16.16;99762.44;5093640;28;42758;-81
2023/03/01 10:48:26;;;;;;;16.50;15.03;;;;;;;27.78;15.76;99755.88;5094374;28;42333;-81
2023/03/01 10:51:07;;;;;;;15.33;13.93;;;;;;;27.10;16.10;99716.78;5094845;28;40846;-82
2023/03/01 10:53:37;;;;;;;15.80;14.47;;;;;;;27.13;16.36;99750.94;5094103;28;41759;-83
2023/03/01 10:56:09;;;;;;;15.57;14.17;;;;;;;27.11;16.72;99734.78;5093913;28;42660;-82
2023/03/01 10:58:39;;;;;;;15.73;14.33;;;;;;;26.73;17.11;99731.06;5093204;28;42345;-82
2023/03/01 11:01:25;;;;;;;15.73;14.17;;;;;;;26.72;16.80;99723.94;5076575;28;38617;-82
2023/03/01 11:04:11;;;;;;;15.60;14.13;;;;;;;26.60;16.73;99722.66;5093213;28;41803;-81
2023/03/01 11:06:41;;;;;;;15.03;13.60;;;;;;;26.85;16.22;99726.09;5076567;28;41701;-82
2023/03/01 11:09:16;;;;;;;15.00;13.53;;;;;;;27.12;16.66;99694.84;5094800;28;42407;-82
2023/03/01 11:11:47;;;;;;;15.73;14.33;;;;;;;27.47;16.32;99715.13;5094208;28;39830;-81
2023/03/01 11:14:17;;;;;;;15.63;14.13;;;;;;;28.44;16.40;99707.84;5093542;28;41618;-82
2023/03/01 11:16:48;;;;;;;16.60;15.20;;;;;;;28.90;14.67;99711.19;5094484;28;42406;-82
2023/03/01 11:19:21;;;;;;;16.43;14.93;;;;;;;29.35;15.59;99701.75;5090284;28;42460;-82
2023/03/01 11:21:56;;;;;;;16.57;15.17;;;;;;;29.56;14.79;99692.72;5076347;28;38981;-81
2023/03/01 11:24:30;;;;;;;15.20;13.80;;;;;;;28.55;15.46;99699.22;5093429;28;40618;-83
2023/03/01 11:27:04;;;;;;;15.70;14.30;;;;;;;28.76;15.02;99691.06;5075754;28;42807;-81
2023/03/01 11:29:38;;;;;;;15.47;14.00;;;;;;;29.16;15.46;99706.00;5093202;28;41636;-82
2023/03/01 11:32:09;;;;;;;14.77;13.37;;;;;;;29.63;16.00;99694.47;5076161;28;39889;-82